M I D A S
Marine Information and Data Acquisition System
Tripno 443 of the Zeeleeuw from 2003-03-05 10:22:25 to 2003-03-05 15:07:28
Back to CruiseResearch ActivitiesStationsMapUnderway DataData graphs

EquipmentUnitsComment
TimeDGPSUTC
LatitudeDGPSDM.mWGS84
LongitudeDGPSDM.mWGS84
HeadingGyrodeg 
SOGDGPSknotsSpeed over ground
COGDGPSdegCourse over ground
DepthEcho soundermeters200 kHz
Missing or incorrect values are displayed as -999
Navigation data collected by the RV Zeeleeuw from 2003-03-05 10:22:25 to 2003-03-05 15:07:28
Time Latitude Longitude Heading SOG COG Depth
2003-03-05 10:23:29 51°13.695 2°55.747 36.5 1.5 227.4 -999
2003-03-05 10:24:29 51°13.695 2°55.735 2.8 1.3 353.7 4.7
2003-03-05 10:25:25 51°13.743 2°55.7 337.4 4.9 333.1 9.2
2003-03-05 10:26:28 51°13.843 2°55.62 338.9 7.1 334.1 9.3
2003-03-05 10:27:28 51°13.957 2°55.536 340 8 335.8 9
2003-03-05 10:28:28 51°14.084 2°55.443 338.5 8.7 333.9 9
2003-03-05 10:29:29 51°14.215 2°55.322 328.2 9 323.7 9.3
2003-03-05 10:30:39 51°14.335 2°55.119 312.8 9.2 308.3 9.2
2003-03-05 10:31:44 51°14.41 2°54.848 283 11.1 278.8 15.7
2003-03-05 10:32:44 51°14.368 2°54.546 250.1 12.4 247.1 14
2003-03-05 10:33:44 51°14.276 2°54.243 247.7 12.8 244.1 13.1
2003-03-05 10:34:53 51°14.169 2°53.89 247.6 12.9 244.3 12.8
2003-03-05 10:35:52 51°14.077 2°53.586 247.4 12.9 244.1 13.2
2003-03-05 10:36:53 51°13.979 2°53.262 246.7 14 243.5 13.7
2003-03-05 10:37:53 51°13.866 2°52.927 245 14.6 241.4 14.6
2003-03-05 10:38:53 51°13.75 2°52.587 245.2 14.6 241.7 15.1
2003-03-05 10:39:55 51°13.632 2°52.233 244.9 14.7 241.8 15.9
2003-03-05 10:40:53 51°13.52 2°51.9 245 14.8 241.7 17.9
2003-03-05 10:42:00 51°13.392 2°51.515 245.3 14.7 242.2 16
2003-03-05 10:43:04 51°13.27 2°51.145 245.3 14.8 242.2 16.5
2003-03-05 10:44:04 51°13.151 2°50.802 243.1 14.8 240.4 17
2003-03-05 10:45:08 51°13.021 2°50.439 243 14.7 240.2 17.1
2003-03-05 10:46:09 51°12.899 2°50.094 243 14.7 240.2 17.5
2003-03-05 10:47:13 51°12.77 2°49.735 243.2 14.6 240.3 17.7
2003-03-05 10:48:13 51°12.648 2°49.399 243.3 14.6 240.4 17.9
2003-03-05 10:49:13 51°12.528 2°49.064 243.1 14.6 240.3 18.2
2003-03-05 10:50:12 51°12.414 2°48.731 245.6 14.5 242.7 18.4
2003-03-05 10:51:13 51°12.3 2°48.384 245.1 14.5 242.2 18.8
2003-03-05 10:52:17 51°12.181 2°48.021 245.5 14.5 242.6 19.1
2003-03-05 10:53:16 51°12.071 2°47.687 245.3 14.5 242.4 22.9
2003-03-05 10:54:17 51°11.957 2°47.342 245.2 14.4 242.2 21.7
2003-03-05 10:55:16 51°11.848 2°47.011 245.3 14.4 242.3 18.9
2003-03-05 10:56:20 51°11.733 2°46.646 249.5 14.4 246.2 19.2
2003-03-05 10:57:24 51°11.635 2°46.268 255.7 14.4 251.5 22.9
2003-03-05 10:58:28 51°11.576 2°45.871 261.2 14.5 257 19.7
2003-03-05 10:59:33 51°11.517 2°45.467 261 14.4 256.9 20.8
2003-03-05 11:00:33 51°11.462 2°45.094 260.5 14.4 256.7 24.7
2003-03-05 11:01:33 51°11.407 2°44.723 260.5 14.3 256.6 24.7
2003-03-05 11:02:33 51°11.352 2°44.355 260.4 14.3 256.5 24.8
2003-03-05 11:03:33 51°11.296 2°43.991 258.4 14.1 255.1 21.7
2003-03-05 11:04:33 51°11.231 2°43.632 257.1 14.1 253.6 21.7
2003-03-05 11:05:33 51°11.165 2°43.275 257.2 14.1 253.6 21.6
2003-03-05 11:06:33 51°11.099 2°42.92 257.1 14 253.4 21.9
2003-03-05 11:07:37 51°11.032 2°42.561 256.9 11.5 253.1 21.9
2003-03-05 11:08:37 51°10.998 2°42.301 279.2 8.9 272.3 22.3
2003-03-05 11:09:37 51°11.029 2°42.109 307.1 6 297.9 21.9
2003-03-05 11:10:37 51°11.08 2°42.044 344.5 2.8 337.5 21.7
2003-03-05 11:11:37 51°11.114 2°42.034 0.6 1.8 357.8 21.4
2003-03-05 11:12:37 51°11.134 2°42.034 350.9 1 356.9 21.4
2003-03-05 11:13:40 51°11.149 2°42.032 344.2 0.8 353 21.4
2003-03-05 11:14:36 51°11.161 2°42.029 340.4 0.8 351.4 21.5
2003-03-05 11:15:40 51°11.175 2°42.025 336 0.8 347.8 21.2
2003-03-05 11:16:37 51°11.187 2°42.019 329.2 0.8 342.1 21.3
2003-03-05 11:17:40 51°11.206 2°41.982 289.6 3.7 286.8 24.8
2003-03-05 11:18:37 51°11.181 2°41.847 242.8 9.1 239.4 21.4
2003-03-05 11:19:40 51°11.066 2°41.553 242.8 13.5 238.7 21.4
2003-03-05 11:20:40 51°10.951 2°41.239 243.7 13.8 239.5 22.2
2003-03-05 11:21:37 51°10.84 2°40.939 243.8 13.8 239.8 22.7
2003-03-05 11:22:39 51°10.72 2°40.612 244 13.8 239.9 23.7
2003-03-05 11:23:40 51°10.604 2°40.29 244.5 13.8 240.4 28.2
2003-03-05 11:24:40 51°10.489 2°39.974 244.2 13.8 240.1 28.4
2003-03-05 11:25:40 51°10.375 2°39.658 244 13.7 240.1 26
2003-03-05 11:26:40 51°10.265 2°39.343 245.6 12.8 241.3 15.4
2003-03-05 11:27:40 51°10.193 2°39.09 250.7 8.8 246.5 16
2003-03-05 11:28:40 51°10.152 2°38.917 256.2 5.8 251 16.1
2003-03-05 11:29:40 51°10.125 2°38.814 244.5 2 240.6 16.3
2003-03-05 11:30:41 51°10.122 2°38.805 244.9 0.3 239.8 16.4
2003-03-05 11:31:40 51°10.121 2°38.8 250.2 0.2 269.3 16.4
2003-03-05 11:32:49 51°10.121 2°38.794 253.2 0.2 250 16.4
2003-03-05 11:33:48 51°10.121 2°38.79 253.2 0.1 277.1 16.4
2003-03-05 11:34:49 51°10.121 2°38.787 252.5 0.1 297.9 16.4
2003-03-05 11:35:48 51°10.113 2°38.76 246.2 4.4 244.5 16.5
2003-03-05 11:36:52 51°10.026 2°38.528 243.3 12.5 238.8 16.6
2003-03-05 11:37:55 51°9.914 2°38.212 244.6 13.1 242.1 16.7
2003-03-05 11:39:03 51°9.784 2°37.874 246.1 13.2 241.2 16.7
2003-03-05 11:40:03 51°9.684 2°37.564 246.5 13.2 242.7 16.9
2003-03-05 11:41:03 51°9.574 2°37.264 245.2 13.2 240.3 16.9
2003-03-05 11:42:01 51°9.475 2°36.967 249 13.1 245.3 17.1
2003-03-05 11:43:01 51°9.394 2°36.65 256.2 11.8 252.3 17.3
2003-03-05 11:44:01 51°9.346 2°36.455 249 5.9 245.4 17.5
2003-03-05 11:45:03 51°9.319 2°36.34 255.1 3.7 252.2 17.6
2003-03-05 11:46:21 51°9.301 2°36.252 248.8 1.7 246.3 17.6
2003-03-05 11:47:21 51°9.306 2°36.262 239.2 1 54.6 17.7
2003-03-05 11:48:29 51°9.316 2°36.286 247.7 0.9 57.9 17.7
2003-03-05 11:49:29 51°9.324 2°36.306 251.1 0.8 56.7 17.7
2003-03-05 11:50:29 51°9.332 2°36.324 252.8 0.8 52.3 17.7
2003-03-05 11:51:29 51°9.341 2°36.341 253.5 0.8 52.3 17.7
2003-03-05 11:52:29 51°9.344 2°36.34 254 1 263.1 17.8
2003-03-05 11:53:29 51°9.329 2°36.19 269 8.5 266.4 17.8
2003-03-05 11:54:29 51°9.357 2°35.943 288.8 9.9 287.5 18.1
2003-03-05 11:55:29 51°9.437 2°35.704 307.5 10.9 306.1 18.6
2003-03-05 11:56:35 51°9.629 2°35.528 335.4 12.6 334.9 19.7
2003-03-05 11:57:33 51°9.852 2°35.48 4.8 14.6 3.3 19.9
2003-03-05 11:58:35 51°10.097 2°35.586 22.9 14.9 22.8 13.8
2003-03-05 11:59:36 51°10.319 2°35.776 31.4 15 31.2 12.8
2003-03-05 12:00:35 51°10.531 2°35.976 31.5 15.1 30.9 12.9
2003-03-05 12:01:36 51°10.744 2°36.199 38.3 15.2 37.3 13.3
2003-03-05 12:02:36 51°10.945 2°36.441 34.1 15.1 33.6 14
2003-03-05 12:03:36 51°11.155 2°36.66 35.5 15.1 34.6 14.6
2003-03-05 12:04:40 51°11.372 2°36.911 38.1 15 37 15.2
2003-03-05 12:05:41 51°11.539 2°37.164 52.7 11.3 50.8 15.7
2003-03-05 12:06:41 51°11.61 2°37.353 54 6.6 56.3 16
2003-03-05 12:07:45 51°11.663 2°37.451 30.4 1.9 61.7 16.1
2003-03-05 12:08:47 51°11.658 2°37.477 35.8 1 98 -999
2003-03-05 12:09:45 51°11.658 2°37.505 37.6 1.2 90.2 16.3
2003-03-05 12:10:49 51°11.66 2°37.539 41.7 1.2 83.5 16.3
2003-03-05 12:11:49 51°11.665 2°37.573 42.9 1.3 76.2 16.4
2003-03-05 12:12:49 51°11.671 2°37.61 41.7 1.5 73.5 16.5
2003-03-05 12:13:54 51°11.712 2°37.677 26.7 6.7 33 16.3
2003-03-05 12:15:01 51°11.91 2°37.84 26.4 14.6 25.9 16.1
2003-03-05 12:16:01 51°12.133 2°38.01 23.8 14.9 23.6 16
2003-03-05 12:17:03 51°12.371 2°38.159 20.6 14.9 20.6 15.8
2003-03-05 12:18:08 51°12.621 2°38.311 20.9 14.8 21 15.5
2003-03-05 12:19:08 51°12.852 2°38.441 11.5 14.5 13 15.7
2003-03-05 12:20:08 51°13.078 2°38.4 334.1 13.3 335.4 16.2
2003-03-05 12:21:09 51°13.263 2°38.2 320.8 13.2 322.2 16.3
2003-03-05 12:22:09 51°13.414 2°37.954 309.1 12.8 309.6 14.1
2003-03-05 12:23:09 51°13.519 2°37.671 288.8 12.1 287.6 11.9
2003-03-05 12:24:09 51°13.523 2°37.355 273.1 12 270.6 11
2003-03-05 12:25:10 51°13.556 2°37.034 282.8 12.3 283 16.7
2003-03-05 12:26:09 51°13.596 2°36.726 280 12 280.3 21.1
2003-03-05 12:27:09 51°13.634 2°36.411 280.3 12.1 280.4 22
2003-03-05 12:28:16 51°13.657 2°36.149 274.3 6.1 275.1 21.1
2003-03-05 12:29:25 51°13.675 2°36.025 269.5 3 277.1 21.3
2003-03-05 12:30:25 51°13.67 2°35.971 253.3 1.6 249 21.6
2003-03-05 12:31:25 51°13.66 2°35.939 255.2 1.2 244.5 21.9
2003-03-05 12:32:25 51°13.659 2°35.912 266.5 1 274.6 21.9
2003-03-05 12:33:25 51°13.663 2°35.887 267.3 1 287.2 22
2003-03-05 12:34:29 51°13.671 2°35.896 259.3 0.9 60.6 21.8
2003-03-05 12:35:34 51°13.678 2°35.921 252.4 1 67.1 21.5
2003-03-05 12:36:37 51°13.684 2°35.948 247.4 1.1 72.8 21.4
2003-03-05 12:37:37 51°13.691 2°35.977 246.7 1.2 70.1 21.2
2003-03-05 12:38:38 51°13.699 2°36.009 248.2 1.3 68.8 20.8
2003-03-05 12:39:38 51°13.707 2°36.041 248.5 1.3 67.1 20.2
2003-03-05 12:40:39 51°13.704 2°35.984 273.7 5.5 271.8 20.6
2003-03-05 12:41:38 51°13.787 2°35.833 333.2 9.7 336.1 18.6
2003-03-05 12:42:39 51°13.964 2°35.918 45.2 12.4 43.8 17
2003-03-05 12:43:36 51°14.062 2°36.215 70.3 14.8 67.5 16
2003-03-05 12:44:41 51°14.134 2°36.639 81.1 15.6 76.9 15.7
2003-03-05 12:45:41 51°14.195 2°37.042 80.8 15.6 76.4 16.5
2003-03-05 12:46:41 51°14.257 2°37.447 80.5 15.7 75.3 17.3
2003-03-05 12:47:47 51°14.328 2°37.891 80.7 15.7 75.8 19.2
2003-03-05 12:48:47 51°14.394 2°38.293 80.5 15.6 74.9 20.5
2003-03-05 12:49:45 51°14.446 2°38.629 82.4 12 75.9 20.8
2003-03-05 12:50:45 51°14.481 2°38.875 92.5 7.8 80.7 20.5
2003-03-05 12:51:54 51°14.5 2°38.991 125.7 1.9 23.8 -999
2003-03-05 12:52:53 51°14.526 2°39.016 116.1 1.8 35.3 20.4
2003-03-05 12:53:53 51°14.548 2°39.044 108.1 1.6 41.4 20.3
2003-03-05 12:54:53 51°14.568 2°39.073 99.3 1.6 44.7 20.4
2003-03-05 12:55:52 51°14.587 2°39.104 88.5 1.6 48.3 20.3
2003-03-05 12:56:53 51°14.63 2°39.266 74.4 12.4 68 19.5
2003-03-05 12:57:53 51°14.723 2°39.641 74 15.8 68.2 18.2
2003-03-05 12:58:53 51°14.823 2°40.03 74.1 15.9 68.3 16.5
2003-03-05 12:59:52 51°14.922 2°40.407 72.1 15.7 67.3 15.5
2003-03-05 13:00:52 51°15.024 2°40.787 72.2 15.6 67.5 14.8
2003-03-05 13:01:54 51°15.125 2°41.181 71.7 15.5 67.6 14.6
2003-03-05 13:02:53 51°15.225 2°41.55 70.5 15.4 66.3 15
2003-03-05 13:04:03 51°15.343 2°41.989 70.8 15.5 66.5 13.7
2003-03-05 13:05:03 51°15.452 2°42.363 68.7 15.6 64.6 13.8
2003-03-05 13:06:03 51°15.562 2°42.737 69.2 15.6 64.6 14.7
2003-03-05 13:07:02 51°15.672 2°43.105 69.6 15.6 64.9 14.6
2003-03-05 13:08:03 51°15.789 2°43.451 60.4 12.2 56.5 14.8
2003-03-05 13:09:03 51°15.855 2°43.66 71.3 7.4 65.4 14.7
2003-03-05 13:10:02 51°15.893 2°43.802 85.6 4.2 71.5 14.4
2003-03-05 13:11:08 51°15.912 2°43.846 105.9 1.5 48.2 14.5
2003-03-05 13:12:08 51°15.928 2°43.877 98.7 1.6 53.5 14.5
2003-03-05 13:13:08 51°15.944 2°43.911 84.9 1.6 53 14.6
2003-03-05 13:14:08 51°15.961 2°43.947 73 1.8 53.6 14.6
2003-03-05 13:15:15 51°15.982 2°43.993 67.6 2.3 56.1 14.5
2003-03-05 13:16:15 51°16.003 2°44.146 104 8.2 90.9 14.4
2003-03-05 13:17:13 51°15.916 2°44.351 154.2 11.7 144.4 14.6
2003-03-05 13:18:16 51°15.727 2°44.571 156.2 13.8 146.2 15.8
2003-03-05 13:19:17 51°15.53 2°44.768 159.3 13.8 149 17.1
2003-03-05 13:20:16 51°15.337 2°44.956 159.1 13.9 147.9 21.3
2003-03-05 13:21:15 51°15.145 2°45.145 159.2 13.8 148.4 19.5
2003-03-05 13:22:18 51°14.942 2°45.349 159.2 13.8 148.1 17.3
2003-03-05 13:23:19 51°14.738 2°45.526 164.2 13.6 153.6 14
2003-03-05 13:24:19 51°14.535 2°45.686 163.7 13.7 154.3 11.5
2003-03-05 13:25:19 51°14.327 2°45.843 163.2 13.8 154.1 15.7
2003-03-05 13:26:16 51°14.132 2°45.996 163.2 13.7 153.1 14.3
2003-03-05 13:27:20 51°13.914 2°46.165 163.3 13.6 154.6 11.5
2003-03-05 13:28:20 51°13.71 2°46.322 163.1 13.8 153.9 13.3
2003-03-05 13:29:20 51°13.505 2°46.484 163.3 13.8 153.7 12.9
2003-03-05 13:30:19 51°13.317 2°46.623 170.5 10.3 158.9 14.1
2003-03-05 13:31:16 51°13.191 2°46.681 174.8 6.9 160.5 14.1
2003-03-05 13:32:20 51°13.142 2°46.738 203.1 1.3 69.8 13.8
2003-03-05 13:33:19 51°13.152 2°46.769 238.1 1.4 54.9 13.9
2003-03-05 13:34:19 51°13.167 2°46.798 258.4 1.4 51.2 14
2003-03-05 13:35:19 51°13.182 2°46.826 269.2 1.4 46.9 13.9
2003-03-05 13:36:23 51°13.199 2°46.853 275.4 1.4 41.8 14.1
2003-03-05 13:37:23 51°13.224 2°46.827 293.8 3.3 309.6 14
2003-03-05 13:38:28 51°13.306 2°46.788 8.1 5.9 15.1 14.4
2003-03-05 13:39:28 51°13.39 2°46.919 56.6 9.2 53.2 14.5
2003-03-05 13:40:27 51°13.511 2°47.19 59.1 14.5 55.1 14.3
2003-03-05 13:41:28 51°13.641 2°47.546 64.9 15.5 60.3 14.2
2003-03-05 13:42:28 51°13.765 2°47.906 66.2 15.6 61.7 14.3
2003-03-05 13:43:32 51°13.89 2°48.297 67.4 15.5 62.9 14.4
2003-03-05 13:44:32 51°14.007 2°48.663 67.3 15.5 62.9 14.3
2003-03-05 13:45:39 51°14.138 2°49.073 68 15.5 63.3 14.3
2003-03-05 13:46:40 51°14.258 2°49.445 67.5 15.4 62.6 14.2
2003-03-05 13:47:39 51°14.373 2°49.802 67.2 15.5 62.5 14.3
2003-03-05 13:48:39 51°14.46 2°50.107 89.5 8.7 77.7 14.2
2003-03-05 13:49:40 51°14.469 2°50.204 138.6 1.7 40.3 14.2
2003-03-05 13:50:40 51°14.488 2°50.235 138.6 1.6 45.9 -999
2003-03-05 13:51:39 51°14.506 2°50.265 132.2 1.6 48.6 14.3
2003-03-05 13:52:39 51°14.522 2°50.298 126.5 1.6 51.3 14.4
2003-03-05 13:53:37 51°14.538 2°50.33 123 1.6 51.9 14.4
2003-03-05 13:54:39 51°14.55 2°50.412 94.7 6.7 86.1 14.3
2003-03-05 13:55:39 51°14.646 2°50.603 23.1 10.5 26.9 14.6
2003-03-05 13:56:36 51°14.82 2°50.549 332.8 13.3 334.6 15.1
2003-03-05 13:57:39 51°15.036 2°50.369 329.8 14.1 331.1 15.6
2003-03-05 13:58:39 51°15.243 2°50.188 329.6 14.3 331.9 15.9
2003-03-05 13:59:40 51°15.457 2°50.009 329.6 14.2 332.2 15.9
2003-03-05 14:00:36 51°15.651 2°49.845 329.9 14.1 332.2 15.8
2003-03-05 14:01:47 51°15.886 2°49.621 327 13.9 328.4 13.6
2003-03-05 14:02:45 51°16.078 2°49.437 327.5 14 329.1 14.4
2003-03-05 14:03:45 51°16.278 2°49.251 325 13.9 328.4 16.5
2003-03-05 14:04:47 51°16.484 2°49.053 323.9 13.8 328.6 18
2003-03-05 14:05:52 51°16.68 2°48.818 316.9 13.7 320.3 12.1
2003-03-05 14:06:54 51°16.863 2°48.572 317.9 13.9 319.5 13.3
2003-03-05 14:07:57 51°17.048 2°48.327 318.5 13.8 320.2 12.1
2003-03-05 14:09:09 51°17.256 2°48.047 318.6 12.5 321 12.3
2003-03-05 14:10:19 51°17.39 2°47.921 322.5 5.8 333.4 12.4
2003-03-05 14:11:24 51°17.451 2°47.864 299.9 2.8 326.1 12.3
2003-03-05 14:12:33 51°17.483 2°47.849 292.5 1.3 15 12.3
2003-03-05 14:13:33 51°17.502 2°47.856 284.2 1.1 14.9 12.3
2003-03-05 14:14:44 51°17.523 2°47.867 278 1.1 19.6 12.3
2003-03-05 14:15:43 51°17.539 2°47.877 270.7 1 20.6 12.3
2003-03-05 14:16:44 51°17.568 2°47.84 321.6 3.7 335.3 12.5
2003-03-05 14:17:48 51°17.656 2°47.886 44.2 7.7 40.3 12.4
2003-03-05 14:18:49 51°17.774 2°48.152 69.6 14.4 63.3 13
2003-03-05 14:19:57 51°17.902 2°48.554 70 15.1 64.6 12.9
2003-03-05 14:21:09 51°18.021 2°48.999 74.1 15.1 68.2 14.2
2003-03-05 14:22:09 51°18.116 2°49.37 73.1 15.1 67.2 14.9
2003-03-05 14:23:09 51°18.212 2°49.742 73.2 15.1 67.2 16.6
2003-03-05 14:24:13 51°18.317 2°50.132 73 15.1 66.8 16.9
2003-03-05 14:25:13 51°18.405 2°50.497 79.2 13.5 71.3 17.1
2003-03-05 14:26:13 51°18.447 2°50.747 77.4 7.9 69.8 17
2003-03-05 14:27:17 51°18.502 2°50.895 73 5 59.3 17
2003-03-05 14:28:16 51°18.532 2°50.99 88.6 3.3 63.9 17
2003-03-05 14:29:19 51°18.557 2°51.021 95.6 1.5 19.9 -999
2003-03-05 14:30:17 51°18.578 2°51.037 89.5 1.5 28.5 17.1
2003-03-05 14:31:16 51°18.599 2°51.057 85 1.6 32.4 17.1
2003-03-05 14:32:16 51°18.621 2°51.082 78 1.7 35.6 17.1
2003-03-05 14:33:23 51°18.65 2°51.138 84.2 5.1 65.6 17.2
2003-03-05 14:34:23 51°18.615 2°51.319 151.2 8.1 136.3 16.9
2003-03-05 14:35:22 51°18.462 2°51.456 168.6 12.5 160 15.9
2003-03-05 14:36:29 51°18.247 2°51.645 154.4 13.5 146.1 14.5
2003-03-05 14:37:29 51°18.057 2°51.832 156.2 13.4 147.8 13.5
2003-03-05 14:38:30 51°17.865 2°52.024 157.3 13.4 147.9 13.2
2003-03-05 14:39:29 51°17.679 2°52.21 157.5 13.3 147.6 13.3
2003-03-05 14:40:30 51°17.488 2°52.403 157.2 13.4 147.9 13.1
2003-03-05 14:41:29 51°17.302 2°52.594 152.7 13.6 143.2 12.7
2003-03-05 14:42:33 51°17.118 2°52.845 143.7 13.8 135 13
2003-03-05 14:43:33 51°16.964 2°53.116 141.5 13.7 132 11
2003-03-05 14:44:33 51°16.808 2°53.39 144.1 14 133.8 14
2003-03-05 14:45:37 51°16.635 2°53.677 143.5 14 133.2 14.8
2003-03-05 14:46:41 51°16.473 2°53.949 147.5 10.7 134.1 14.9
2003-03-05 14:47:48 51°16.369 2°54.076 170.5 5.1 147.4 14.9
2003-03-05 14:48:49 51°16.316 2°54.117 189.1 2.5 154.7 14.8
2003-03-05 14:49:51 51°16.289 2°54.148 181.4 1.7 131.9 14.8
2003-03-05 14:50:50 51°16.278 2°54.185 171.3 1.6 107.6 14.7
2003-03-05 14:51:53 51°16.276 2°54.227 163.5 1.4 80.9 14.6
2003-03-05 14:52:59 51°16.283 2°54.269 154.8 1.5 72.4 14.6
2003-03-05 14:54:00 51°16.293 2°54.31 142.3 1.7 65.1 14.6
2003-03-05 14:55:11 51°16.31 2°54.357 125 1.8 57.9 14.5
2003-03-05 14:56:15 51°16.279 2°54.463 156.9 6.4 136.5 14.3
2003-03-05 14:57:27 51°16.124 2°54.582 171.2 9.7 160.2 13.9
2003-03-05 14:58:27 51°15.966 2°54.651 173.4 10 164.4 13.4
2003-03-05 14:59:29 51°15.797 2°54.713 178.5 9.8 170.5 12.8
2003-03-05 15:00:29 51°15.655 2°54.758 178 8 166.9 12.4
2003-03-05 15:01:30 51°15.497 2°54.802 178.7 11.3 172.4 11.8
2003-03-05 15:02:31 51°15.296 2°54.853 178.5 12.2 171.2 11.2
2003-03-05 15:03:30 51°15.099 2°54.9 180.9 12.1 172.4 11.1
2003-03-05 15:04:29 51°14.904 2°54.935 183 11.9 174.8 11.6
2003-03-05 15:05:29 51°14.706 2°54.959 184.4 11.9 176.3 12
2003-03-05 15:06:29 51°14.518 2°54.979 181 10.8 173.8 12.3